sensor_id;sensor_type;location;lat;lon;timestamp;P1;durP1;ratioP1;P2;durP2;ratioP2
25331;SDS011;13284;52.748;13.452;2024-02-14T00:00:06;7.27;;;5.23;;
25331;SDS011;13284;52.748;13.452;2024-02-14T00:02:38;5.80;;;4.40;;
25331;SDS011;13284;52.748;13.452;2024-02-14T00:05:14;7.10;;;4.87;;
25331;SDS011;13284;52.748;13.452;2024-02-14T00:07:40;6.03;;;4.80;;
25331;SDS011;13284;52.748;13.452;2024-02-14T00:10:06;7.63;;;5.40;;
25331;SDS011;13284;52.748;13.452;2024-02-14T00:12:32;10.73;;;5.27;;
25331;SDS011;13284;52.748;13.452;2024-02-14T00:14:58;12.00;;;4.83;;
25331;SDS011;13284;52.748;13.452;2024-02-14T00:17:24;8.23;;;5.30;;
25331;SDS011;13284;52.748;13.452;2024-02-14T00:19:50;6.90;;;5.47;;
25331;SDS011;13284;52.748;13.452;2024-02-14T00:22:16;6.73;;;5.37;;
25331;SDS011;13284;52.748;13.452;2024-02-14T00:24:41;6.50;;;5.20;;
25331;SDS011;13284;52.748;13.452;2024-02-14T00:27:07;6.37;;;5.00;;
25331;SDS011;13284;52.748;13.452;2024-02-14T00:29:32;9.53;;;5.13;;
25331;SDS011;13284;52.748;13.452;2024-02-14T00:32:01;11.00;;;5.90;;
25331;SDS011;13284;52.748;13.452;2024-02-14T00:34:27;6.43;;;5.20;;
25331;SDS011;13284;52.748;13.452;2024-02-14T00:36:52;8.37;;;6.07;;
25331;SDS011;13284;52.748;13.452;2024-02-14T00:39:18;8.53;;;6.50;;
25331;SDS011;13284;52.748;13.452;2024-02-14T00:44:13;7.60;;;5.13;;
25331;SDS011;13284;52.748;13.452;2024-02-14T00:46:41;6.73;;;5.03;;
25331;SDS011;13284;52.748;13.452;2024-02-14T00:49:08;8.40;;;5.57;;
25331;SDS011;13284;52.748;13.452;2024-02-14T00:51:35;6.80;;;5.50;;
25331;SDS011;13284;52.748;13.452;2024-02-14T00:54:02;12.63;;;6.10;;
25331;SDS011;13284;52.748;13.452;2024-02-14T00:56:28;7.07;;;5.30;;
25331;SDS011;13284;52.748;13.452;2024-02-14T00:58:53;8.83;;;5.73;;
25331;SDS011;13284;52.748;13.452;2024-02-14T01:01:19;7.10;;;5.77;;
25331;SDS011;13284;52.748;13.452;2024-02-14T01:03:44;11.33;;;6.13;;
25331;SDS011;13284;52.748;13.452;2024-02-14T01:06:10;6.67;;;5.33;;
25331;SDS011;13284;52.748;13.452;2024-02-14T01:08:36;8.87;;;6.20;;
25331;SDS011;13284;52.748;13.452;2024-02-14T01:11:02;7.37;;;4.80;;
25331;SDS011;13284;52.748;13.452;2024-02-14T01:13:28;7.20;;;5.27;;
25331;SDS011;13284;52.748;13.452;2024-02-14T01:15:54;7.63;;;5.20;;
25331;SDS011;13284;52.748;13.452;2024-02-14T01:18:19;7.83;;;5.70;;
25331;SDS011;13284;52.748;13.452;2024-02-14T01:20:45;14.10;;;6.97;;
25331;SDS011;13284;52.748;13.452;2024-02-14T01:23:11;8.20;;;5.43;;
25331;SDS011;13284;52.748;13.452;2024-02-14T01:25:36;11.83;;;5.90;;
25331;SDS011;13284;52.748;13.452;2024-02-14T01:28:02;8.80;;;5.57;;
25331;SDS011;13284;52.748;13.452;2024-02-14T01:30:28;6.97;;;4.87;;
25331;SDS011;13284;52.748;13.452;2024-02-14T01:32:53;10.87;;;4.90;;
25331;SDS011;13284;52.748;13.452;2024-02-14T01:35:19;9.80;;;5.23;;
25331;SDS011;13284;52.748;13.452;2024-02-14T01:37:45;7.37;;;5.87;;
25331;SDS011;13284;52.748;13.452;2024-02-14T01:40:10;7.23;;;5.70;;
25331;SDS011;13284;52.748;13.452;2024-02-14T01:42:36;6.93;;;5.37;;
25331;SDS011;13284;52.748;13.452;2024-02-14T01:45:02;14.60;;;6.23;;
25331;SDS011;13284;52.748;13.452;2024-02-14T01:47:28;8.13;;;5.70;;
25331;SDS011;13284;52.748;13.452;2024-02-14T01:49:54;9.23;;;6.23;;
25331;SDS011;13284;52.748;13.452;2024-02-14T01:52:19;9.30;;;5.83;;
25331;SDS011;13284;52.748;13.452;2024-02-14T01:54:46;7.37;;;6.07;;
25331;SDS011;13284;52.748;13.452;2024-02-14T01:57:12;11.33;;;6.37;;
25331;SDS011;13284;52.748;13.452;2024-02-14T01:59:38;6.70;;;4.43;;
25331;SDS011;13284;52.748;13.452;2024-02-14T02:02:04;11.03;;;5.80;;
25331;SDS011;13284;52.748;13.452;2024-02-14T02:04:33;7.33;;;5.47;;
25331;SDS011;13284;52.748;13.452;2024-02-14T02:06:59;6.43;;;5.67;;
25331;SDS011;13284;52.748;13.452;2024-02-14T02:09:25;7.17;;;5.80;;
25331;SDS011;13284;52.748;13.452;2024-02-14T02:11:51;8.93;;;5.50;;
25331;SDS011;13284;52.748;13.452;2024-02-14T02:14:21;8.23;;;5.77;;
25331;SDS011;13284;52.748;13.452;2024-02-14T02:16:47;9.40;;;5.73;;
25331;SDS011;13284;52.748;13.452;2024-02-14T02:19:12;9.43;;;5.40;;
25331;SDS011;13284;52.748;13.452;2024-02-14T02:21:41;9.23;;;6.33;;
25331;SDS011;13284;52.748;13.452;2024-02-14T02:24:09;8.47;;;6.47;;
25331;SDS011;13284;52.748;13.452;2024-02-14T02:26:34;6.33;;;4.90;;
25331;SDS011;13284;52.748;13.452;2024-02-14T02:29:00;8.60;;;5.80;;
25331;SDS011;13284;52.748;13.452;2024-02-14T02:31:25;8.17;;;6.20;;
25331;SDS011;13284;52.748;13.452;2024-02-14T02:33:51;10.67;;;5.90;;
25331;SDS011;13284;52.748;13.452;2024-02-14T02:36:17;7.10;;;5.87;;
25331;SDS011;13284;52.748;13.452;2024-02-14T02:38:42;9.10;;;6.43;;
25331;SDS011;13284;52.748;13.452;2024-02-14T02:41:09;7.73;;;6.30;;
25331;SDS011;13284;52.748;13.452;2024-02-14T02:43:34;8.80;;;6.37;;
25331;SDS011;13284;52.748;13.452;2024-02-14T02:46:00;8.63;;;5.80;;
25331;SDS011;13284;52.748;13.452;2024-02-14T02:48:26;8.77;;;6.40;;
25331;SDS011;13284;52.748;13.452;2024-02-14T02:50:52;10.23;;;5.93;;
25331;SDS011;13284;52.748;13.452;2024-02-14T02:53:18;8.80;;;6.37;;
25331;SDS011;13284;52.748;13.452;2024-02-14T02:55:44;7.00;;;5.47;;
25331;SDS011;13284;52.748;13.452;2024-02-14T02:58:10;7.50;;;5.70;;
25331;SDS011;13284;52.748;13.452;2024-02-14T03:00:36;9.27;;;5.80;;
25331;SDS011;13284;52.748;13.452;2024-02-14T03:03:02;7.60;;;5.77;;
25331;SDS011;13284;52.748;13.452;2024-02-14T03:05:29;8.50;;;6.00;;
25331;SDS011;13284;52.748;13.452;2024-02-14T03:07:57;10.40;;;6.57;;
25331;SDS011;13284;52.748;13.452;2024-02-14T03:10:23;9.60;;;6.30;;
25331;SDS011;13284;52.748;13.452;2024-02-14T03:12:49;9.70;;;6.40;;
25331;SDS011;13284;52.748;13.452;2024-02-14T03:15:15;9.20;;;5.37;;
25331;SDS011;13284;52.748;13.452;2024-02-14T03:17:41;9.17;;;6.07;;
25331;SDS011;13284;52.748;13.452;2024-02-14T03:20:07;8.90;;;5.97;;
25331;SDS011;13284;52.748;13.452;2024-02-14T03:22:39;7.27;;;5.37;;
25331;SDS011;13284;52.748;13.452;2024-02-14T03:25:12;9.17;;;5.60;;
25331;SDS011;13284;52.748;13.452;2024-02-14T03:27:41;7.00;;;5.37;;
25331;SDS011;13284;52.748;13.452;2024-02-14T03:30:10;9.00;;;6.47;;
25331;SDS011;13284;52.748;13.452;2024-02-14T03:32:37;8.10;;;5.90;;
25331;SDS011;13284;52.748;13.452;2024-02-14T03:35:03;9.80;;;5.60;;
25331;SDS011;13284;52.748;13.452;2024-02-14T03:37:29;13.40;;;5.70;;
25331;SDS011;13284;52.748;13.452;2024-02-14T03:39:55;8.57;;;5.70;;
25331;SDS011;13284;52.748;13.452;2024-02-14T03:42:20;8.63;;;5.70;;
25331;SDS011;13284;52.748;13.452;2024-02-14T03:44:46;8.20;;;5.50;;
25331;SDS011;13284;52.748;13.452;2024-02-14T03:47:12;6.73;;;5.43;;
25331;SDS011;13284;52.748;13.452;2024-02-14T03:49:41;8.53;;;6.13;;
25331;SDS011;13284;52.748;13.452;2024-02-14T03:52:06;6.70;;;5.27;;
25331;SDS011;13284;52.748;13.452;2024-02-14T03:54:37;7.20;;;5.50;;
25331;SDS011;13284;52.748;13.452;2024-02-14T03:57:03;7.17;;;5.40;;
25331;SDS011;13284;52.748;13.452;2024-02-14T03:59:35;8.90;;;5.60;;
25331;SDS011;13284;52.748;13.452;2024-02-14T04:02:01;10.73;;;6.40;;
25331;SDS011;13284;52.748;13.452;2024-02-14T04:04:27;9.53;;;5.70;;
25331;SDS011;13284;52.748;13.452;2024-02-14T04:06:52;10.37;;;6.80;;
25331;SDS011;13284;52.748;13.452;2024-02-14T04:09:18;9.63;;;5.80;;
25331;SDS011;13284;52.748;13.452;2024-02-14T04:11:43;9.50;;;5.77;;
25331;SDS011;13284;52.748;13.452;2024-02-14T04:14:09;7.07;;;5.30;;
25331;SDS011;13284;52.748;13.452;2024-02-14T04:16:34;8.60;;;6.00;;
25331;SDS011;13284;52.748;13.452;2024-02-14T04:19:01;7.53;;;4.90;;
25331;SDS011;13284;52.748;13.452;2024-02-14T04:21:27;7.47;;;5.20;;
25331;SDS011;13284;52.748;13.452;2024-02-14T04:23:53;8.40;;;5.50;;
25331;SDS011;13284;52.748;13.452;2024-02-14T04:26:22;8.00;;;5.83;;
25331;SDS011;13284;52.748;13.452;2024-02-14T04:28:47;10.10;;;5.97;;
25331;SDS011;13284;52.748;13.452;2024-02-14T04:31:13;9.37;;;5.90;;
25331;SDS011;13284;52.748;13.452;2024-02-14T04:33:39;7.07;;;4.90;;
25331;SDS011;13284;52.748;13.452;2024-02-14T04:36:04;9.07;;;5.60;;
25331;SDS011;13284;52.748;13.452;2024-02-14T04:38:31;7.43;;;5.20;;
25331;SDS011;13284;52.748;13.452;2024-02-14T04:40:56;6.63;;;5.47;;
25331;SDS011;13284;52.748;13.452;2024-02-14T04:43:23;10.20;;;6.90;;
25331;SDS011;13284;52.748;13.452;2024-02-14T04:45:49;9.57;;;6.40;;
25331;SDS011;13284;52.748;13.452;2024-02-14T04:48:15;8.50;;;5.80;;
25331;SDS011;13284;52.748;13.452;2024-02-14T04:50:41;12.53;;;6.47;;
25331;SDS011;13284;52.748;13.452;2024-02-14T04:53:06;8.33;;;6.03;;
25331;SDS011;13284;52.748;13.452;2024-02-14T04:55:32;7.80;;;6.00;;
25331;SDS011;13284;52.748;13.452;2024-02-14T04:57:58;7.37;;;5.90;;
25331;SDS011;13284;52.748;13.452;2024-02-14T05:00:24;8.00;;;5.90;;
25331;SDS011;13284;52.748;13.452;2024-02-14T05:02:50;10.30;;;6.20;;
25331;SDS011;13284;52.748;13.452;2024-02-14T05:05:16;8.30;;;6.03;;
25331;SDS011;13284;52.748;13.452;2024-02-14T05:07:41;7.63;;;5.17;;
25331;SDS011;13284;52.748;13.452;2024-02-14T05:10:07;13.07;;;6.70;;
25331;SDS011;13284;52.748;13.452;2024-02-14T05:12:33;7.60;;;5.80;;
25331;SDS011;13284;52.748;13.452;2024-02-14T05:14:58;8.37;;;5.70;;
25331;SDS011;13284;52.748;13.452;2024-02-14T05:17:24;8.13;;;6.07;;
25331;SDS011;13284;52.748;13.452;2024-02-14T05:19:49;7.63;;;5.97;;
25331;SDS011;13284;52.748;13.452;2024-02-14T05:22:15;9.60;;;6.63;;
25331;SDS011;13284;52.748;13.452;2024-02-14T05:24:41;11.13;;;6.50;;
25331;SDS011;13284;52.748;13.452;2024-02-14T05:27:06;9.67;;;6.73;;
25331;SDS011;13284;52.748;13.452;2024-02-14T05:29:32;8.10;;;5.50;;
25331;SDS011;13284;52.748;13.452;2024-02-14T05:31:58;9.97;;;6.97;;
25331;SDS011;13284;52.748;13.452;2024-02-14T05:34:23;8.60;;;6.57;;
25331;SDS011;13284;52.748;13.452;2024-02-14T05:36:49;10.37;;;6.97;;
25331;SDS011;13284;52.748;13.452;2024-02-14T05:39:15;7.90;;;6.17;;
25331;SDS011;13284;52.748;13.452;2024-02-14T05:41:41;12.07;;;6.87;;
25331;SDS011;13284;52.748;13.452;2024-02-14T05:44:07;11.17;;;6.40;;
25331;SDS011;13284;52.748;13.452;2024-02-14T05:46:32;10.40;;;6.90;;
25331;SDS011;13284;52.748;13.452;2024-02-14T05:48:58;8.47;;;6.90;;
25331;SDS011;13284;52.748;13.452;2024-02-14T05:51:23;10.70;;;7.00;;
25331;SDS011;13284;52.748;13.452;2024-02-14T05:53:49;12.35;;;8.32;;
25331;SDS011;13284;52.748;13.452;2024-02-14T05:56:15;13.57;;;8.77;;
25331;SDS011;13284;52.748;13.452;2024-02-14T05:58:40;10.53;;;7.10;;
25331;SDS011;13284;52.748;13.452;2024-02-14T06:01:06;12.73;;;7.07;;
25331;SDS011;13284;52.748;13.452;2024-02-14T06:03:32;11.20;;;7.53;;
25331;SDS011;13284;52.748;13.452;2024-02-14T06:05:57;11.20;;;7.97;;
25331;SDS011;13284;52.748;13.452;2024-02-14T06:08:23;9.10;;;6.63;;
25331;SDS011;13284;52.748;13.452;2024-02-14T06:10:48;9.83;;;6.33;;
25331;SDS011;13284;52.748;13.452;2024-02-14T06:13:14;8.43;;;6.23;;
25331;SDS011;13284;52.748;13.452;2024-02-14T06:15:40;10.03;;;5.67;;
25331;SDS011;13284;52.748;13.452;2024-02-14T06:18:06;7.67;;;6.23;;
25331;SDS011;13284;52.748;13.452;2024-02-14T06:20:31;8.40;;;6.97;;
25331;SDS011;13284;52.748;13.452;2024-02-14T06:22:57;9.30;;;6.17;;
25331;SDS011;13284;52.748;13.452;2024-02-14T06:25:23;8.37;;;6.30;;
25331;SDS011;13284;52.748;13.452;2024-02-14T06:27:48;10.70;;;6.20;;
25331;SDS011;13284;52.748;13.452;2024-02-14T06:30:14;9.23;;;6.00;;
25331;SDS011;13284;52.748;13.452;2024-02-14T06:32:41;8.20;;;5.77;;
25331;SDS011;13284;52.748;13.452;2024-02-14T06:35:07;8.03;;;6.70;;
25331;SDS011;13284;52.748;13.452;2024-02-14T06:37:33;9.80;;;7.00;;
25331;SDS011;13284;52.748;13.452;2024-02-14T06:39:58;12.90;;;5.80;;
25331;SDS011;13284;52.748;13.452;2024-02-14T06:42:24;9.10;;;6.43;;
25331;SDS011;13284;52.748;13.452;2024-02-14T06:44:49;7.90;;;6.43;;
25331;SDS011;13284;52.748;13.452;2024-02-14T06:47:15;9.93;;;5.73;;
25331;SDS011;13284;52.748;13.452;2024-02-14T06:49:40;8.17;;;5.90;;
25331;SDS011;13284;52.748;13.452;2024-02-14T06:52:06;9.33;;;5.70;;
25331;SDS011;13284;52.748;13.452;2024-02-14T06:54:31;8.07;;;6.10;;
25331;SDS011;13284;52.748;13.452;2024-02-14T06:56:57;12.23;;;5.97;;
25331;SDS011;13284;52.748;13.452;2024-02-14T06:59:22;8.60;;;6.03;;
25331;SDS011;13284;52.748;13.452;2024-02-14T07:01:48;7.73;;;5.80;;
25331;SDS011;13284;52.748;13.452;2024-02-14T07:04:13;10.10;;;5.97;;
25331;SDS011;13284;52.748;13.452;2024-02-14T07:06:39;8.10;;;6.40;;
25331;SDS011;13284;52.748;13.452;2024-02-14T07:09:04;9.23;;;5.37;;
25331;SDS011;13284;52.748;13.452;2024-02-14T07:11:31;6.80;;;5.80;;
25331;SDS011;13284;52.748;13.452;2024-02-14T07:13:56;6.73;;;5.27;;
25331;SDS011;13284;52.748;13.452;2024-02-14T07:16:22;11.10;;;6.50;;
25331;SDS011;13284;52.748;13.452;2024-02-14T07:18:49;8.90;;;6.00;;
25331;SDS011;13284;52.748;13.452;2024-02-14T07:21:14;7.67;;;5.87;;
25331;SDS011;13284;52.748;13.452;2024-02-14T07:23:40;7.67;;;5.83;;
25331;SDS011;13284;52.748;13.452;2024-02-14T07:26:05;6.23;;;5.37;;
25331;SDS011;13284;52.748;13.452;2024-02-14T07:28:31;8.10;;;5.47;;
25331;SDS011;13284;52.748;13.452;2024-02-14T07:30:57;7.17;;;6.17;;
25331;SDS011;13284;52.748;13.452;2024-02-14T07:33:22;10.77;;;5.73;;
25331;SDS011;13284;52.748;13.452;2024-02-14T07:35:48;8.20;;;5.63;;
25331;SDS011;13284;52.748;13.452;2024-02-14T07:38:14;8.83;;;5.90;;
25331;SDS011;13284;52.748;13.452;2024-02-14T07:40:41;8.63;;;6.10;;
25331;SDS011;13284;52.748;13.452;2024-02-14T07:43:07;7.43;;;4.97;;
25331;SDS011;13284;52.748;13.452;2024-02-14T07:45:32;7.70;;;5.47;;
25331;SDS011;13284;52.748;13.452;2024-02-14T07:47:58;5.73;;;5.03;;
25331;SDS011;13284;52.748;13.452;2024-02-14T07:50:24;9.17;;;6.00;;
25331;SDS011;13284;52.748;13.452;2024-02-14T07:52:49;9.30;;;5.20;;
25331;SDS011;13284;52.748;13.452;2024-02-14T07:55:15;8.83;;;5.70;;
25331;SDS011;13284;52.748;13.452;2024-02-14T07:57:41;7.97;;;5.67;;
25331;SDS011;13284;52.748;13.452;2024-02-14T08:00:07;7.17;;;4.80;;
25331;SDS011;13284;52.748;13.452;2024-02-14T08:02:34;6.80;;;5.60;;
25331;SDS011;13284;52.748;13.452;2024-02-14T08:05:00;9.37;;;5.83;;
25331;SDS011;13284;52.748;13.452;2024-02-14T08:07:26;6.57;;;5.13;;
25331;SDS011;13284;52.748;13.452;2024-02-14T08:09:52;10.27;;;4.93;;
25331;SDS011;13284;52.748;13.452;2024-02-14T08:12:18;10.27;;;4.63;;
25331;SDS011;13284;52.748;13.452;2024-02-14T08:14:43;7.90;;;5.30;;
25331;SDS011;13284;52.748;13.452;2024-02-14T08:17:09;8.07;;;5.03;;
25331;SDS011;13284;52.748;13.452;2024-02-14T08:19:34;7.77;;;4.80;;
25331;SDS011;13284;52.748;13.452;2024-02-14T08:22:00;7.40;;;5.30;;
25331;SDS011;13284;52.748;13.452;2024-02-14T08:24:26;6.67;;;4.93;;
25331;SDS011;13284;52.748;13.452;2024-02-14T08:26:52;5.73;;;5.20;;
25331;SDS011;13284;52.748;13.452;2024-02-14T08:29:19;7.40;;;5.73;;
25331;SDS011;13284;52.748;13.452;2024-02-14T08:31:45;8.70;;;5.97;;
25331;SDS011;13284;52.748;13.452;2024-02-14T08:34:11;5.07;;;4.57;;
25331;SDS011;13284;52.748;13.452;2024-02-14T08:36:37;6.50;;;5.00;;
25331;SDS011;13284;52.748;13.452;2024-02-14T08:39:06;7.70;;;5.23;;
25331;SDS011;13284;52.748;13.452;2024-02-14T08:41:32;7.90;;;5.17;;
25331;SDS011;13284;52.748;13.452;2024-02-14T08:43:58;5.23;;;4.60;;
25331;SDS011;13284;52.748;13.452;2024-02-14T08:46:24;8.93;;;5.33;;
25331;SDS011;13284;52.748;13.452;2024-02-14T08:48:50;7.03;;;5.00;;
25331;SDS011;13284;52.748;13.452;2024-02-14T08:51:16;5.13;;;4.57;;
25331;SDS011;13284;52.748;13.452;2024-02-14T08:53:45;9.97;;;5.90;;
25331;SDS011;13284;52.748;13.452;2024-02-14T08:56:10;8.60;;;5.33;;
25331;SDS011;13284;52.748;13.452;2024-02-14T08:58:36;5.53;;;4.57;;
25331;SDS011;13284;52.748;13.452;2024-02-14T09:01:02;5.30;;;4.43;;
25331;SDS011;13284;52.748;13.452;2024-02-14T09:03:27;7.30;;;4.93;;
25331;SDS011;13284;52.748;13.452;2024-02-14T09:05:53;7.27;;;5.37;;
25331;SDS011;13284;52.748;13.452;2024-02-14T09:08:19;7.93;;;4.87;;
25331;SDS011;13284;52.748;13.452;2024-02-14T09:10:45;7.53;;;4.70;;
25331;SDS011;13284;52.748;13.452;2024-02-14T09:13:11;7.00;;;4.97;;
25331;SDS011;13284;52.748;13.452;2024-02-14T09:15:36;9.27;;;5.57;;
25331;SDS011;13284;52.748;13.452;2024-02-14T09:18:02;4.90;;;4.40;;
25331;SDS011;13284;52.748;13.452;2024-02-14T09:20:30;6.30;;;4.40;;
25331;SDS011;13284;52.748;13.452;2024-02-14T09:22:56;6.50;;;4.50;;
25331;SDS011;13284;52.748;13.452;2024-02-14T09:25:23;9.50;;;4.50;;
25331;SDS011;13284;52.748;13.452;2024-02-14T09:27:50;7.70;;;4.87;;
25331;SDS011;13284;52.748;13.452;2024-02-14T09:30:16;6.33;;;4.73;;
25331;SDS011;13284;52.748;13.452;2024-02-14T09:32:42;5.13;;;4.40;;
25331;SDS011;13284;52.748;13.452;2024-02-14T09:35:09;6.73;;;4.13;;
25331;SDS011;13284;52.748;13.452;2024-02-14T09:37:35;7.20;;;4.67;;
25331;SDS011;13284;52.748;13.452;2024-02-14T09:40:03;8.40;;;4.30;;
25331;SDS011;13284;52.748;13.452;2024-02-14T09:42:37;5.93;;;4.77;;
25331;SDS011;13284;52.748;13.452;2024-02-14T09:45:06;6.23;;;4.77;;
25331;SDS011;13284;52.748;13.452;2024-02-14T09:47:32;5.93;;;3.90;;
25331;SDS011;13284;52.748;13.452;2024-02-14T09:49:59;9.87;;;4.30;;
25331;SDS011;13284;52.748;13.452;2024-02-14T09:52:26;8.40;;;4.87;;
25331;SDS011;13284;52.748;13.452;2024-02-14T09:54:52;11.23;;;4.80;;
25331;SDS011;13284;52.748;13.452;2024-02-14T09:57:18;6.50;;;5.00;;
25331;SDS011;13284;52.748;13.452;2024-02-14T09:59:44;4.90;;;4.40;;
25331;SDS011;13284;52.748;13.452;2024-02-14T10:02:11;4.80;;;4.17;;
25331;SDS011;13284;52.748;13.452;2024-02-14T10:04:37;6.30;;;4.90;;
25331;SDS011;13284;52.748;13.452;2024-02-14T10:07:06;5.77;;;4.17;;
25331;SDS011;13284;52.748;13.452;2024-02-14T10:09:39;5.83;;;4.27;;
25331;SDS011;13284;52.748;13.452;2024-02-14T10:12:06;5.13;;;4.60;;
25331;SDS011;13284;52.748;13.452;2024-02-14T10:14:33;5.93;;;3.90;;
25331;SDS011;13284;52.748;13.452;2024-02-14T10:17:00;7.50;;;4.40;;
25331;SDS011;13284;52.748;13.452;2024-02-14T10:19:25;4.73;;;4.20;;
25331;SDS011;13284;52.748;13.452;2024-02-14T10:21:57;4.97;;;4.23;;
25331;SDS011;13284;52.748;13.452;2024-02-14T10:24:27;5.27;;;3.40;;
25331;SDS011;13284;52.748;13.452;2024-02-14T10:26:53;4.30;;;3.90;;
25331;SDS011;13284;52.748;13.452;2024-02-14T10:29:22;4.27;;;3.30;;
25331;SDS011;13284;52.748;13.452;2024-02-14T10:31:51;5.63;;;3.80;;
25331;SDS011;13284;52.748;13.452;2024-02-14T10:34:18;3.93;;;3.53;;
25331;SDS011;13284;52.748;13.452;2024-02-14T10:36:47;4.07;;;3.20;;
25331;SDS011;13284;52.748;13.452;2024-02-14T10:39:13;8.57;;;4.00;;
25331;SDS011;13284;52.748;13.452;2024-02-14T10:41:41;4.13;;;3.10;;
25331;SDS011;13284;52.748;13.452;2024-02-14T10:44:07;3.43;;;2.87;;
25331;SDS011;13284;52.748;13.452;2024-02-14T10:46:35;5.57;;;3.40;;
25331;SDS011;13284;52.748;13.452;2024-02-14T10:49:05;4.17;;;3.10;;
25331;SDS011;13284;52.748;13.452;2024-02-14T10:51:36;6.90;;;3.63;;
25331;SDS011;13284;52.748;13.452;2024-02-14T10:54:04;4.83;;;3.40;;
25331;SDS011;13284;52.748;13.452;2024-02-14T10:56:35;3.53;;;2.53;;
25331;SDS011;13284;52.748;13.452;2024-02-14T10:59:04;3.50;;;3.17;;
25331;SDS011;13284;52.748;13.452;2024-02-14T11:01:32;4.87;;;3.07;;
25331;SDS011;13284;52.748;13.452;2024-02-14T11:04:00;4.40;;;2.83;;
25331;SDS011;13284;52.748;13.452;2024-02-14T11:06:29;5.33;;;2.90;;
25331;SDS011;13284;52.748;13.452;2024-02-14T11:09:00;4.37;;;2.67;;
25331;SDS011;13284;52.748;13.452;2024-02-14T11:11:32;2.90;;;2.60;;
25331;SDS011;13284;52.748;13.452;2024-02-14T11:13:58;5.30;;;2.20;;
25331;SDS011;13284;52.748;13.452;2024-02-14T11:16:27;3.80;;;3.00;;
25331;SDS011;13284;52.748;13.452;2024-02-14T11:18:54;3.00;;;2.70;;
25331;SDS011;13284;52.748;13.452;2024-02-14T11:21:34;4.60;;;3.13;;
25331;SDS011;13284;52.748;13.452;2024-02-14T11:24:11;4.50;;;2.90;;
25331;SDS011;13284;52.748;13.452;2024-02-14T11:26:55;4.10;;;3.57;;
25331;SDS011;13284;52.748;13.452;2024-02-14T11:29:21;3.57;;;3.27;;
25331;SDS011;13284;52.748;13.452;2024-02-14T11:32:00;5.00;;;3.40;;
25331;SDS011;13284;52.748;13.452;2024-02-14T11:34:27;2.63;;;2.43;;
25331;SDS011;13284;52.748;13.452;2024-02-14T11:36:53;3.13;;;2.83;;
25331;SDS011;13284;52.748;13.452;2024-02-14T11:39:20;3.70;;;3.40;;
25331;SDS011;13284;52.748;13.452;2024-02-14T11:41:45;5.33;;;3.17;;
25331;SDS011;13284;52.748;13.452;2024-02-14T11:44:11;5.63;;;3.13;;
25331;SDS011;13284;52.748;13.452;2024-02-14T11:46:39;3.00;;;2.63;;
25331;SDS011;13284;52.748;13.452;2024-02-14T11:49:05;5.07;;;3.60;;
25331;SDS011;13284;52.748;13.452;2024-02-14T11:51:31;6.93;;;3.17;;
25331;SDS011;13284;52.748;13.452;2024-02-14T11:54:00;4.00;;;2.97;;
25331;SDS011;13284;52.748;13.452;2024-02-14T11:56:39;6.33;;;3.17;;
25331;SDS011;13284;52.748;13.452;2024-02-14T11:59:05;3.80;;;3.10;;
25331;SDS011;13284;52.748;13.452;2024-02-14T12:01:35;4.00;;;2.83;;
25331;SDS011;13284;52.748;13.452;2024-02-14T12:04:02;3.83;;;3.47;;
25331;SDS011;13284;52.748;13.452;2024-02-14T12:06:31;3.93;;;3.03;;
25331;SDS011;13284;52.748;13.452;2024-02-14T12:08:59;5.10;;;3.77;;
25331;SDS011;13284;52.748;13.452;2024-02-14T12:11:35;3.53;;;3.03;;
25331;SDS011;13284;52.748;13.452;2024-02-14T12:14:07;2.90;;;2.70;;
25331;SDS011;13284;52.748;13.452;2024-02-14T12:16:34;4.03;;;3.40;;
25331;SDS011;13284;52.748;13.452;2024-02-14T12:21:34;3.50;;;3.20;;
25331;SDS011;13284;52.748;13.452;2024-02-14T12:24:01;4.47;;;3.47;;
25331;SDS011;13284;52.748;13.452;2024-02-14T12:26:29;4.23;;;3.17;;
25331;SDS011;13284;52.748;13.452;2024-02-14T12:28:56;5.20;;;3.37;;
25331;SDS011;13284;52.748;13.452;2024-02-14T12:31:22;4.13;;;3.30;;
25331;SDS011;13284;52.748;13.452;2024-02-14T12:33:48;5.40;;;3.20;;
25331;SDS011;13284;52.748;13.452;2024-02-14T12:36:17;5.27;;;2.83;;
25331;SDS011;13284;52.748;13.452;2024-02-14T12:38:43;4.73;;;3.30;;
25331;SDS011;13284;52.748;13.452;2024-02-14T12:41:08;6.83;;;3.40;;
25331;SDS011;13284;52.748;13.452;2024-02-14T12:43:34;5.13;;;3.03;;
25331;SDS011;13284;52.748;13.452;2024-02-14T12:45:59;4.10;;;2.53;;
25331;SDS011;13284;52.748;13.452;2024-02-14T12:48:25;3.07;;;2.77;;
25331;SDS011;13284;52.748;13.452;2024-02-14T12:50:51;2.70;;;2.30;;
25331;SDS011;13284;52.748;13.452;2024-02-14T12:53:17;3.50;;;2.60;;
25331;SDS011;13284;52.748;13.452;2024-02-14T12:55:45;3.37;;;2.47;;
25331;SDS011;13284;52.748;13.452;2024-02-14T12:58:11;3.77;;;2.93;;
25331;SDS011;13284;52.748;13.452;2024-02-14T13:00:37;4.07;;;2.70;;
25331;SDS011;13284;52.748;13.452;2024-02-14T13:03:03;3.27;;;2.50;;
25331;SDS011;13284;52.748;13.452;2024-02-14T13:05:29;4.30;;;3.17;;
25331;SDS011;13284;52.748;13.452;2024-02-14T13:07:55;3.27;;;2.40;;
25331;SDS011;13284;52.748;13.452;2024-02-14T13:10:21;4.97;;;3.43;;
25331;SDS011;13284;52.748;13.452;2024-02-14T13:12:47;3.50;;;2.80;;
25331;SDS011;13284;52.748;13.452;2024-02-14T13:15:12;4.13;;;3.30;;
25331;SDS011;13284;52.748;13.452;2024-02-14T13:17:38;3.30;;;2.60;;
25331;SDS011;13284;52.748;13.452;2024-02-14T13:20:04;3.30;;;2.97;;
25331;SDS011;13284;52.748;13.452;2024-02-14T13:22:30;5.40;;;3.10;;
25331;SDS011;13284;52.748;13.452;2024-02-14T13:24:55;4.80;;;2.90;;
25331;SDS011;13284;52.748;13.452;2024-02-14T13:27:21;5.10;;;3.07;;
25331;SDS011;13284;52.748;13.452;2024-02-14T13:29:48;4.10;;;3.20;;
25331;SDS011;13284;52.748;13.452;2024-02-14T13:32:14;3.60;;;2.70;;
25331;SDS011;13284;52.748;13.452;2024-02-14T13:34:40;2.90;;;2.63;;
25331;SDS011;13284;52.748;13.452;2024-02-14T13:37:05;5.30;;;3.10;;
25331;SDS011;13284;52.748;13.452;2024-02-14T13:39:31;4.90;;;3.10;;
25331;SDS011;13284;52.748;13.452;2024-02-14T13:41:57;3.37;;;2.73;;
25331;SDS011;13284;52.748;13.452;2024-02-14T13:44:24;4.30;;;3.60;;
25331;SDS011;13284;52.748;13.452;2024-02-14T13:46:50;7.23;;;3.43;;
25331;SDS011;13284;52.748;13.452;2024-02-14T13:49:17;3.67;;;3.37;;
25331;SDS011;13284;52.748;13.452;2024-02-14T13:51:47;3.70;;;2.80;;
25331;SDS011;13284;52.748;13.452;2024-02-14T13:54:19;3.47;;;2.67;;
25331;SDS011;13284;52.748;13.452;2024-02-14T13:56:45;6.00;;;3.43;;
25331;SDS011;13284;52.748;13.452;2024-02-14T13:59:13;4.37;;;2.90;;
25331;SDS011;13284;52.748;13.452;2024-02-14T14:01:39;3.00;;;2.70;;
25331;SDS011;13284;52.748;13.452;2024-02-14T14:04:04;2.50;;;2.30;;
25331;SDS011;13284;52.748;13.452;2024-02-14T14:06:30;2.87;;;2.30;;
25331;SDS011;13284;52.748;13.452;2024-02-14T14:08:56;2.87;;;2.67;;
25331;SDS011;13284;52.748;13.452;2024-02-14T14:11:22;4.17;;;2.70;;
25331;SDS011;13284;52.748;13.452;2024-02-14T14:13:48;4.80;;;2.97;;
25331;SDS011;13284;52.748;13.452;2024-02-14T14:16:14;3.60;;;2.70;;
25331;SDS011;13284;52.748;13.452;2024-02-14T14:18:40;5.20;;;3.47;;
25331;SDS011;13284;52.748;13.452;2024-02-14T14:21:06;3.67;;;2.70;;
25331;SDS011;13284;52.748;13.452;2024-02-14T14:23:31;3.20;;;2.90;;
25331;SDS011;13284;52.748;13.452;2024-02-14T14:25:57;3.10;;;2.80;;
25331;SDS011;13284;52.748;13.452;2024-02-14T14:28:23;3.40;;;2.70;;
25331;SDS011;13284;52.748;13.452;2024-02-14T14:30:53;3.73;;;2.90;;
25331;SDS011;13284;52.748;13.452;2024-02-14T14:33:20;3.20;;;2.90;;